sensor_id;sensor_type;location;lat;lon;timestamp;P1;durP1;ratioP1;P2;durP2;ratioP2
83552;SDS011;73510;50.866;5.420;2024-02-14T00:01:03;1.98;;;1.20;;
83552;SDS011;73510;50.866;5.420;2024-02-14T00:03:29;2.88;;;0.80;;
83552;SDS011;73510;50.866;5.420;2024-02-14T00:05:54;1.95;;;1.00;;
83552;SDS011;73510;50.866;5.420;2024-02-14T00:08:22;1.65;;;0.80;;
83552;SDS011;73510;50.866;5.420;2024-02-14T00:10:48;2.53;;;1.17;;
83552;SDS011;73510;50.866;5.420;2024-02-14T00:13:14;2.83;;;1.50;;
83552;SDS011;73510;50.866;5.420;2024-02-14T00:15:40;1.67;;;1.00;;
83552;SDS011;73510;50.866;5.420;2024-02-14T00:18:05;1.73;;;1.10;;
83552;SDS011;73510;50.866;5.420;2024-02-14T00:20:31;2.95;;;1.40;;
83552;SDS011;73510;50.866;5.420;2024-02-14T00:22:57;1.35;;;1.20;;
83552;SDS011;73510;50.866;5.420;2024-02-14T00:25:23;2.40;;;1.30;;
83552;SDS011;73510;50.866;5.420;2024-02-14T00:27:49;3.10;;;1.35;;
83552;SDS011;73510;50.866;5.420;2024-02-14T00:30:15;3.72;;;1.23;;
83552;SDS011;73510;50.866;5.420;2024-02-14T00:32:40;2.92;;;1.33;;
83552;SDS011;73510;50.866;5.420;2024-02-14T00:35:06;3.63;;;1.38;;
83552;SDS011;73510;50.866;5.420;2024-02-14T00:37:33;1.80;;;1.23;;
83552;SDS011;73510;50.866;5.420;2024-02-14T00:39:59;3.00;;;1.42;;
83552;SDS011;73510;50.866;5.420;2024-02-14T00:42:25;3.15;;;1.30;;
83552;SDS011;73510;50.866;5.420;2024-02-14T00:44:50;2.80;;;1.10;;
83552;SDS011;73510;50.866;5.420;2024-02-14T00:47:16;2.90;;;1.13;;
83552;SDS011;73510;50.866;5.420;2024-02-14T00:49:42;4.07;;;1.20;;
83552;SDS011;73510;50.866;5.420;2024-02-14T00:52:08;1.75;;;0.93;;
83552;SDS011;73510;50.866;5.420;2024-02-14T00:54:34;2.38;;;1.10;;
83552;SDS011;73510;50.866;5.420;2024-02-14T00:57:00;2.30;;;1.10;;
83552;SDS011;73510;50.866;5.420;2024-02-14T00:59:26;1.25;;;1.00;;
83552;SDS011;73510;50.866;5.420;2024-02-14T01:01:52;3.38;;;1.40;;
83552;SDS011;73510;50.866;5.420;2024-02-14T01:04:18;1.10;;;0.85;;
83552;SDS011;73510;50.866;5.420;2024-02-14T01:06:44;2.03;;;1.08;;
83552;SDS011;73510;50.866;5.420;2024-02-14T01:09:09;1.55;;;0.90;;
83552;SDS011;73510;50.866;5.420;2024-02-14T01:11:35;3.33;;;1.38;;
83552;SDS011;73510;50.866;5.420;2024-02-14T01:14:03;3.17;;;1.33;;
83552;SDS011;73510;50.866;5.420;2024-02-14T01:16:29;2.20;;;1.23;;
83552;SDS011;73510;50.866;5.420;2024-02-14T01:18:55;2.10;;;1.30;;
83552;SDS011;73510;50.866;5.420;2024-02-14T01:21:21;2.28;;;0.93;;
83552;SDS011;73510;50.866;5.420;2024-02-14T01:23:47;1.70;;;1.30;;
83552;SDS011;73510;50.866;5.420;2024-02-14T01:26:13;3.35;;;1.40;;
83552;SDS011;73510;50.866;5.420;2024-02-14T01:28:39;3.92;;;0.98;;
83552;SDS011;73510;50.866;5.420;2024-02-14T01:31:05;1.77;;;1.10;;
83552;SDS011;73510;50.866;5.420;2024-02-14T01:33:36;1.20;;;0.65;;
83552;SDS011;73510;50.866;5.420;2024-02-14T01:36:02;4.22;;;1.40;;
83552;SDS011;73510;50.866;5.420;2024-02-14T01:38:27;2.78;;;1.20;;
83552;SDS011;73510;50.866;5.420;2024-02-14T01:40:54;1.52;;;1.15;;
83552;SDS011;73510;50.866;5.420;2024-02-14T01:43:19;2.35;;;1.17;;
83552;SDS011;73510;50.866;5.420;2024-02-14T01:45:45;2.45;;;1.00;;
83552;SDS011;73510;50.866;5.420;2024-02-14T01:48:11;2.75;;;1.30;;
83552;SDS011;73510;50.866;5.420;2024-02-14T01:50:37;2.95;;;1.02;;
83552;SDS011;73510;50.866;5.420;2024-02-14T01:53:05;0.90;;;0.70;;
83552;SDS011;73510;50.866;5.420;2024-02-14T01:55:32;3.63;;;1.42;;
83552;SDS011;73510;50.866;5.420;2024-02-14T01:57:59;3.05;;;1.20;;
83552;SDS011;73510;50.866;5.420;2024-02-14T02:00:26;1.20;;;1.10;;
83552;SDS011;73510;50.866;5.420;2024-02-14T02:02:52;3.28;;;1.42;;
83552;SDS011;73510;50.866;5.420;2024-02-14T02:05:19;2.35;;;1.20;;
83552;SDS011;73510;50.866;5.420;2024-02-14T02:07:44;3.80;;;1.10;;
83552;SDS011;73510;50.866;5.420;2024-02-14T02:10:13;2.10;;;1.05;;
83552;SDS011;73510;50.866;5.420;2024-02-14T02:12:39;3.92;;;1.38;;
83552;SDS011;73510;50.866;5.420;2024-02-14T02:15:05;1.73;;;1.30;;
83552;SDS011;73510;50.866;5.420;2024-02-14T02:17:32;1.90;;;1.20;;
83552;SDS011;73510;50.866;5.420;2024-02-14T02:19:59;2.70;;;1.55;;
83552;SDS011;73510;50.866;5.420;2024-02-14T02:22:26;2.28;;;1.15;;
83552;SDS011;73510;50.866;5.420;2024-02-14T02:24:54;2.08;;;1.48;;
83552;SDS011;73510;50.866;5.420;2024-02-14T02:27:20;3.30;;;1.40;;
83552;SDS011;73510;50.866;5.420;2024-02-14T02:29:45;2.08;;;0.90;;
83552;SDS011;73510;50.866;5.420;2024-02-14T02:32:12;2.13;;;1.45;;
83552;SDS011;73510;50.866;5.420;2024-02-14T02:34:38;5.22;;;1.63;;
83552;SDS011;73510;50.866;5.420;2024-02-14T02:37:04;3.13;;;1.73;;
83552;SDS011;73510;50.866;5.420;2024-02-14T02:39:33;2.38;;;1.60;;
83552;SDS011;73510;50.866;5.420;2024-02-14T02:42:00;2.78;;;1.60;;
83552;SDS011;73510;50.866;5.420;2024-02-14T02:44:27;3.85;;;1.73;;
83552;SDS011;73510;50.866;5.420;2024-02-14T02:46:52;2.40;;;1.88;;
83552;SDS011;73510;50.866;5.420;2024-02-14T02:49:18;5.05;;;2.00;;
83552;SDS011;73510;50.866;5.420;2024-02-14T02:51:44;2.75;;;1.92;;
83552;SDS011;73510;50.866;5.420;2024-02-14T02:54:10;4.68;;;1.80;;
83552;SDS011;73510;50.866;5.420;2024-02-14T02:56:36;6.30;;;1.83;;
83552;SDS011;73510;50.866;5.420;2024-02-14T02:59:02;2.88;;;1.83;;
83552;SDS011;73510;50.866;5.420;2024-02-14T03:01:28;2.85;;;1.67;;
83552;SDS011;73510;50.866;5.420;2024-02-14T03:03:59;2.38;;;1.80;;
83552;SDS011;73510;50.866;5.420;2024-02-14T03:06:25;2.13;;;1.80;;
83552;SDS011;73510;50.866;5.420;2024-02-14T03:08:51;3.22;;;2.13;;
83552;SDS011;73510;50.866;5.420;2024-02-14T03:11:21;1.00;;;0.80;;
83552;SDS011;73510;50.866;5.420;2024-02-14T03:13:47;2.25;;;1.90;;
83552;SDS011;73510;50.866;5.420;2024-02-14T03:16:14;2.90;;;1.52;;
83552;SDS011;73510;50.866;5.420;2024-02-14T03:18:40;3.50;;;2.03;;
83552;SDS011;73510;50.866;5.420;2024-02-14T03:21:06;4.13;;;2.17;;
83552;SDS011;73510;50.866;5.420;2024-02-14T03:23:32;3.13;;;1.58;;
83552;SDS011;73510;50.866;5.420;2024-02-14T03:25:57;2.72;;;1.67;;
83552;SDS011;73510;50.866;5.420;2024-02-14T03:28:23;2.58;;;1.63;;
83552;SDS011;73510;50.866;5.420;2024-02-14T03:30:50;2.00;;;1.50;;
83552;SDS011;73510;50.866;5.420;2024-02-14T03:33:15;2.65;;;1.80;;
83552;SDS011;73510;50.866;5.420;2024-02-14T03:35:41;4.05;;;2.10;;
83552;SDS011;73510;50.866;5.420;2024-02-14T03:38:07;2.88;;;1.80;;
83552;SDS011;73510;50.866;5.420;2024-02-14T03:40:35;4.53;;;1.98;;
83552;SDS011;73510;50.866;5.420;2024-02-14T03:43:03;3.30;;;2.13;;
83552;SDS011;73510;50.866;5.420;2024-02-14T03:45:29;3.40;;;1.70;;
83552;SDS011;73510;50.866;5.420;2024-02-14T03:47:55;2.58;;;1.88;;
83552;SDS011;73510;50.866;5.420;2024-02-14T03:50:21;4.65;;;2.10;;
83552;SDS011;73510;50.866;5.420;2024-02-14T03:52:47;3.33;;;1.73;;
83552;SDS011;73510;50.866;5.420;2024-02-14T03:55:14;1.95;;;1.63;;
83552;SDS011;73510;50.866;5.420;2024-02-14T03:57:42;3.63;;;1.77;;
83552;SDS011;73510;50.866;5.420;2024-02-14T04:00:10;3.97;;;2.03;;
83552;SDS011;73510;50.866;5.420;2024-02-14T04:02:37;2.60;;;1.75;;
83552;SDS011;73510;50.866;5.420;2024-02-14T04:05:02;3.22;;;1.85;;
83552;SDS011;73510;50.866;5.420;2024-02-14T04:07:29;4.05;;;2.10;;
83552;SDS011;73510;50.866;5.420;2024-02-14T04:09:55;4.50;;;1.90;;
83552;SDS011;73510;50.866;5.420;2024-02-14T04:12:22;3.05;;;1.63;;
83552;SDS011;73510;50.866;5.420;2024-02-14T04:14:48;3.08;;;1.45;;
83552;SDS011;73510;50.866;5.420;2024-02-14T04:17:13;3.33;;;1.80;;
83552;SDS011;73510;50.866;5.420;2024-02-14T04:19:39;3.72;;;2.33;;
83552;SDS011;73510;50.866;5.420;2024-02-14T04:22:05;3.90;;;1.90;;
83552;SDS011;73510;50.866;5.420;2024-02-14T04:24:33;3.08;;;1.98;;
83552;SDS011;73510;50.866;5.420;2024-02-14T04:26:59;4.47;;;2.35;;
83552;SDS011;73510;50.866;5.420;2024-02-14T04:29:27;3.67;;;1.35;;
83552;SDS011;73510;50.866;5.420;2024-02-14T04:31:55;2.88;;;1.83;;
83552;SDS011;73510;50.866;5.420;2024-02-14T04:34:21;3.33;;;2.00;;
83552;SDS011;73510;50.866;5.420;2024-02-14T04:36:47;2.45;;;2.17;;
83552;SDS011;73510;50.866;5.420;2024-02-14T04:39:13;3.03;;;2.38;;
83552;SDS011;73510;50.866;5.420;2024-02-14T04:41:39;4.40;;;2.22;;
83552;SDS011;73510;50.866;5.420;2024-02-14T04:44:04;4.55;;;2.25;;
83552;SDS011;73510;50.866;5.420;2024-02-14T04:46:33;3.13;;;2.03;;
83552;SDS011;73510;50.866;5.420;2024-02-14T04:49:03;4.43;;;1.90;;
83552;SDS011;73510;50.866;5.420;2024-02-14T04:51:30;4.47;;;2.10;;
83552;SDS011;73510;50.866;5.420;2024-02-14T04:53:56;3.67;;;1.92;;
83552;SDS011;73510;50.866;5.420;2024-02-14T04:56:24;4.97;;;2.35;;
83552;SDS011;73510;50.866;5.420;2024-02-14T04:58:52;4.20;;;2.20;;
83552;SDS011;73510;50.866;5.420;2024-02-14T05:01:18;5.03;;;2.78;;
83552;SDS011;73510;50.866;5.420;2024-02-14T05:03:44;2.42;;;1.92;;
83552;SDS011;73510;50.866;5.420;2024-02-14T05:06:10;4.00;;;2.30;;
83552;SDS011;73510;50.866;5.420;2024-02-14T05:08:35;5.05;;;2.30;;
83552;SDS011;73510;50.866;5.420;2024-02-14T05:11:01;4.70;;;2.22;;
83552;SDS011;73510;50.866;5.420;2024-02-14T05:13:28;3.33;;;1.67;;
83552;SDS011;73510;50.866;5.420;2024-02-14T05:15:55;3.10;;;2.25;;
83552;SDS011;73510;50.866;5.420;2024-02-14T05:18:21;3.75;;;1.85;;
83552;SDS011;73510;50.866;5.420;2024-02-14T05:20:47;3.30;;;2.17;;
83552;SDS011;73510;50.866;5.420;2024-02-14T05:23:14;2.78;;;1.90;;
83552;SDS011;73510;50.866;5.420;2024-02-14T05:25:42;3.75;;;2.25;;
83552;SDS011;73510;50.866;5.420;2024-02-14T05:28:08;3.17;;;2.38;;
83552;SDS011;73510;50.866;5.420;2024-02-14T05:30:38;3.50;;;2.60;;
83552;SDS011;73510;50.866;5.420;2024-02-14T05:33:04;5.80;;;2.38;;
83552;SDS011;73510;50.866;5.420;2024-02-14T05:35:30;3.53;;;2.28;;
83552;SDS011;73510;50.866;5.420;2024-02-14T05:37:56;4.32;;;2.38;;
83552;SDS011;73510;50.866;5.420;2024-02-14T05:40:21;3.65;;;2.38;;
83552;SDS011;73510;50.866;5.420;2024-02-14T05:42:47;2.88;;;2.05;;
83552;SDS011;73510;50.866;5.420;2024-02-14T05:45:13;4.15;;;2.40;;
83552;SDS011;73510;50.866;5.420;2024-02-14T05:47:38;4.60;;;2.58;;
83552;SDS011;73510;50.866;5.420;2024-02-14T05:50:04;3.30;;;2.40;;
83552;SDS011;73510;50.866;5.420;2024-02-14T05:52:31;4.68;;;2.53;;
83552;SDS011;73510;50.866;5.420;2024-02-14T05:54:56;3.47;;;2.60;;
83552;SDS011;73510;50.866;5.420;2024-02-14T05:57:22;5.70;;;2.90;;
83552;SDS011;73510;50.866;5.420;2024-02-14T05:59:48;3.95;;;2.47;;
83552;SDS011;73510;50.866;5.420;2024-02-14T06:02:14;4.03;;;2.50;;
83552;SDS011;73510;50.866;5.420;2024-02-14T06:04:39;3.95;;;2.55;;
83552;SDS011;73510;50.866;5.420;2024-02-14T06:07:07;5.55;;;2.65;;
83552;SDS011;73510;50.866;5.420;2024-02-14T06:09:35;3.30;;;2.70;;
83552;SDS011;73510;50.866;5.420;2024-02-14T06:12:01;3.30;;;2.78;;
83552;SDS011;73510;50.866;5.420;2024-02-14T06:14:27;4.50;;;2.50;;
83552;SDS011;73510;50.866;5.420;2024-02-14T06:16:55;3.38;;;2.67;;
83552;SDS011;73510;50.866;5.420;2024-02-14T06:19:21;6.28;;;2.85;;
83552;SDS011;73510;50.866;5.420;2024-02-14T06:21:47;4.88;;;2.80;;
83552;SDS011;73510;50.866;5.420;2024-02-14T06:24:13;5.90;;;3.00;;
83552;SDS011;73510;50.866;5.420;2024-02-14T06:26:39;3.30;;;2.47;;
83552;SDS011;73510;50.866;5.420;2024-02-14T06:29:04;3.90;;;2.83;;
83552;SDS011;73510;50.866;5.420;2024-02-14T06:31:30;6.75;;;3.05;;
83552;SDS011;73510;50.866;5.420;2024-02-14T06:33:56;4.70;;;2.42;;
83552;SDS011;73510;50.866;5.420;2024-02-14T06:36:22;4.80;;;2.58;;
83552;SDS011;73510;50.866;5.420;2024-02-14T06:38:48;3.58;;;2.20;;
83552;SDS011;73510;50.866;5.420;2024-02-14T06:41:15;3.88;;;2.40;;
83552;SDS011;73510;50.866;5.420;2024-02-14T06:43:40;3.20;;;2.35;;
83552;SDS011;73510;50.866;5.420;2024-02-14T06:46:06;5.32;;;2.70;;
83552;SDS011;73510;50.866;5.420;2024-02-14T06:48:32;4.32;;;2.50;;
83552;SDS011;73510;50.866;5.420;2024-02-14T06:50:59;3.25;;;2.28;;
83552;SDS011;73510;50.866;5.420;2024-02-14T06:53:24;4.60;;;2.58;;
83552;SDS011;73510;50.866;5.420;2024-02-14T06:55:50;4.00;;;2.30;;
83552;SDS011;73510;50.866;5.420;2024-02-14T06:58:16;5.38;;;2.40;;
83552;SDS011;73510;50.866;5.420;2024-02-14T07:00:41;4.13;;;2.42;;
83552;SDS011;73510;50.866;5.420;2024-02-14T07:03:07;2.75;;;2.08;;
83552;SDS011;73510;50.866;5.420;2024-02-14T07:05:33;4.78;;;2.60;;
83552;SDS011;73510;50.866;5.420;2024-02-14T07:07:58;3.05;;;2.08;;
83552;SDS011;73510;50.866;5.420;2024-02-14T07:10:24;3.67;;;2.15;;
83552;SDS011;73510;50.866;5.420;2024-02-14T07:12:50;4.13;;;2.42;;
83552;SDS011;73510;50.866;5.420;2024-02-14T07:15:16;5.93;;;2.20;;
83552;SDS011;73510;50.866;5.420;2024-02-14T07:17:43;2.55;;;1.73;;
83552;SDS011;73510;50.866;5.420;2024-02-14T07:20:08;2.50;;;1.98;;
83552;SDS011;73510;50.866;5.420;2024-02-14T07:22:35;2.30;;;1.85;;
83552;SDS011;73510;50.866;5.420;2024-02-14T07:25:01;2.92;;;1.65;;
83552;SDS011;73510;50.866;5.420;2024-02-14T07:27:27;3.92;;;1.70;;
83552;SDS011;73510;50.866;5.420;2024-02-14T07:29:53;4.72;;;2.03;;
83552;SDS011;73510;50.866;5.420;2024-02-14T07:32:19;3.45;;;1.85;;
83552;SDS011;73510;50.866;5.420;2024-02-14T07:34:45;2.28;;;1.65;;
83552;SDS011;73510;50.866;5.420;2024-02-14T07:37:11;3.17;;;1.90;;
83552;SDS011;73510;50.866;5.420;2024-02-14T07:39:36;4.35;;;1.95;;
83552;SDS011;73510;50.866;5.420;2024-02-14T07:42:02;2.33;;;1.58;;
83552;SDS011;73510;50.866;5.420;2024-02-14T07:44:28;5.20;;;2.15;;
83552;SDS011;73510;50.866;5.420;2024-02-14T07:46:54;2.67;;;1.77;;
83552;SDS011;73510;50.866;5.420;2024-02-14T07:49:20;4.68;;;2.15;;
83552;SDS011;73510;50.866;5.420;2024-02-14T07:51:45;3.17;;;2.00;;
83552;SDS011;73510;50.866;5.420;2024-02-14T07:54:11;5.15;;;1.88;;
83552;SDS011;73510;50.866;5.420;2024-02-14T07:56:37;3.85;;;2.05;;
83552;SDS011;73510;50.866;5.420;2024-02-14T07:59:03;4.47;;;2.22;;
83552;SDS011;73510;50.866;5.420;2024-02-14T08:01:30;3.90;;;2.08;;
83552;SDS011;73510;50.866;5.420;2024-02-14T08:03:57;1.80;;;1.50;;
83552;SDS011;73510;50.866;5.420;2024-02-14T08:06:23;3.28;;;1.90;;
83552;SDS011;73510;50.866;5.420;2024-02-14T08:08:49;2.60;;;1.75;;
83552;SDS011;73510;50.866;5.420;2024-02-14T08:11:19;2.63;;;1.60;;
83552;SDS011;73510;50.866;5.420;2024-02-14T08:13:45;3.00;;;1.92;;
83552;SDS011;73510;50.866;5.420;2024-02-14T08:16:10;4.03;;;2.00;;
83552;SDS011;73510;50.866;5.420;2024-02-14T08:18:37;2.63;;;1.92;;
83552;SDS011;73510;50.866;5.420;2024-02-14T08:21:04;3.78;;;1.67;;
83552;SDS011;73510;50.866;5.420;2024-02-14T08:23:31;3.58;;;1.70;;
83552;SDS011;73510;50.866;5.420;2024-02-14T08:25:57;5.68;;;2.40;;
83552;SDS011;73510;50.866;5.420;2024-02-14T08:28:23;3.95;;;1.98;;
83552;SDS011;73510;50.866;5.420;2024-02-14T08:30:49;4.50;;;2.10;;
83552;SDS011;73510;50.866;5.420;2024-02-14T08:33:14;3.42;;;2.20;;
83552;SDS011;73510;50.866;5.420;2024-02-14T08:35:40;3.55;;;1.98;;
83552;SDS011;73510;50.866;5.420;2024-02-14T08:38:06;3.65;;;1.90;;
83552;SDS011;73510;50.866;5.420;2024-02-14T08:40:33;4.70;;;1.70;;
83552;SDS011;73510;50.866;5.420;2024-02-14T08:42:59;3.97;;;1.55;;
83552;SDS011;73510;50.866;5.420;2024-02-14T08:45:24;2.78;;;1.80;;
83552;SDS011;73510;50.866;5.420;2024-02-14T08:47:54;3.17;;;1.70;;
83552;SDS011;73510;50.866;5.420;2024-02-14T08:50:20;2.85;;;1.48;;
83552;SDS011;73510;50.866;5.420;2024-02-14T08:52:46;5.05;;;1.80;;
83552;SDS011;73510;50.866;5.420;2024-02-14T08:55:11;3.03;;;1.58;;
83552;SDS011;73510;50.866;5.420;2024-02-14T08:57:42;2.67;;;1.50;;
83552;SDS011;73510;50.866;5.420;2024-02-14T09:00:08;3.67;;;1.10;;
83552;SDS011;73510;50.866;5.420;2024-02-14T09:02:35;2.45;;;1.50;;
83552;SDS011;73510;50.866;5.420;2024-02-14T09:05:01;3.25;;;1.25;;
83552;SDS011;73510;50.866;5.420;2024-02-14T09:07:29;4.15;;;1.30;;
83552;SDS011;73510;50.866;5.420;2024-02-14T09:09:56;3.35;;;1.42;;
83552;SDS011;73510;50.866;5.420;2024-02-14T09:12:22;4.13;;;1.48;;
83552;SDS011;73510;50.866;5.420;2024-02-14T09:14:48;1.50;;;1.02;;
83552;SDS011;73510;50.866;5.420;2024-02-14T09:17:14;3.33;;;1.27;;
83552;SDS011;73510;50.866;5.420;2024-02-14T09:19:41;1.42;;;1.13;;
83552;SDS011;73510;50.866;5.420;2024-02-14T09:22:06;3.20;;;1.58;;
83552;SDS011;73510;50.866;5.420;2024-02-14T09:24:32;2.17;;;1.40;;
83552;SDS011;73510;50.866;5.420;2024-02-14T09:26:58;2.28;;;1.05;;
83552;SDS011;73510;50.866;5.420;2024-02-14T09:29:24;2.33;;;1.25;;
83552;SDS011;73510;50.866;5.420;2024-02-14T09:31:50;2.05;;;1.30;;
83552;SDS011;73510;50.866;5.420;2024-02-14T09:34:16;1.95;;;1.27;;
83552;SDS011;73510;50.866;5.420;2024-02-14T09:36:44;2.15;;;1.15;;
83552;SDS011;73510;50.866;5.420;2024-02-14T09:39:10;5.05;;;1.20;;
83552;SDS011;73510;50.866;5.420;2024-02-14T09:41:40;1.80;;;1.20;;
83552;SDS011;73510;50.866;5.420;2024-02-14T09:44:08;1.52;;;1.05;;
83552;SDS011;73510;50.866;5.420;2024-02-14T09:46:37;1.17;;;0.90;;
83552;SDS011;73510;50.866;5.420;2024-02-14T09:49:04;3.00;;;0.90;;
83552;SDS011;73510;50.866;5.420;2024-02-14T09:51:31;2.13;;;1.15;;
83552;SDS011;73510;50.866;5.420;2024-02-14T09:53:57;1.23;;;0.98;;
83552;SDS011;73510;50.866;5.420;2024-02-14T09:56:25;1.70;;;1.10;;
83552;SDS011;73510;50.866;5.420;2024-02-14T09:58:52;2.03;;;1.00;;
83552;SDS011;73510;50.866;5.420;2024-02-14T10:01:24;1.42;;;0.88;;
83552;SDS011;73510;50.866;5.420;2024-02-14T10:03:51;1.45;;;1.08;;
83552;SDS011;73510;50.866;5.420;2024-02-14T10:06:18;1.70;;;0.80;;
83552;SDS011;73510;50.866;5.420;2024-02-14T10:08:47;1.45;;;0.90;;
83552;SDS011;73510;50.866;5.420;2024-02-14T10:11:15;2.13;;;1.10;;
83552;SDS011;73510;50.866;5.420;2024-02-14T10:13:43;0.73;;;0.57;;
83552;SDS011;73510;50.866;5.420;2024-02-14T10:16:11;1.60;;;0.80;;
83552;SDS011;73510;50.866;5.420;2024-02-14T10:18:37;1.70;;;0.90;;
83552;SDS011;73510;50.866;5.420;2024-02-14T10:21:04;2.45;;;0.70;;
83552;SDS011;73510;50.866;5.420;2024-02-14T10:23:30;2.45;;;1.00;;
83552;SDS011;73510;50.866;5.420;2024-02-14T10:25:57;1.25;;;0.80;;
83552;SDS011;73510;50.866;5.420;2024-02-14T10:28:23;1.75;;;0.70;;
83552;SDS011;73510;50.866;5.420;2024-02-14T10:30:49;0.93;;;0.68;;
83552;SDS011;73510;50.866;5.420;2024-02-14T10:33:17;0.70;;;0.68;;
83552;SDS011;73510;50.866;5.420;2024-02-14T10:35:46;0.85;;;0.52;;
83552;SDS011;73510;50.866;5.420;2024-02-14T10:38:15;0.95;;;0.60;;
83552;SDS011;73510;50.866;5.420;2024-02-14T10:40:43;1.05;;;0.70;;
83552;SDS011;73510;50.866;5.420;2024-02-14T10:43:12;0.60;;;0.50;;
83552;SDS011;73510;50.866;5.420;2024-02-14T10:45:38;1.45;;;0.55;;
83552;SDS011;73510;50.866;5.420;2024-02-14T10:48:11;1.00;;;0.45;;
83552;SDS011;73510;50.866;5.420;2024-02-14T10:50:40;2.38;;;0.70;;
83552;SDS011;73510;50.866;5.420;2024-02-14T10:53:06;0.75;;;0.32;;
83552;SDS011;73510;50.866;5.420;2024-02-14T10:55:38;0.60;;;0.50;;
83552;SDS011;73510;50.866;5.420;2024-02-14T10:58:07;1.23;;;0.40;;
83552;SDS011;73510;50.866;5.420;2024-02-14T11:00:35;0.57;;;0.40;;
83552;SDS011;73510;50.866;5.420;2024-02-14T11:03:01;0.98;;;0.50;;
83552;SDS011;73510;50.866;5.420;2024-02-14T11:05:27;0.60;;;0.40;;
83552;SDS011;73510;50.866;5.420;2024-02-14T11:07:53;0.45;;;0.17;;
83552;SDS011;73510;50.866;5.420;2024-02-14T11:10:19;1.98;;;0.30;;
83552;SDS011;73510;50.866;5.420;2024-02-14T11:12:46;0.60;;;0.52;;
83552;SDS011;73510;50.866;5.420;2024-02-14T11:17:45;0.68;;;0.43;;
83552;SDS011;73510;50.866;5.420;2024-02-14T11:20:30;1.73;;;0.47;;
83552;SDS011;73510;50.866;5.420;2024-02-14T11:23:04;1.38;;;0.43;;
83552;SDS011;73510;50.866;5.420;2024-02-14T11:25:31;1.08;;;0.45;;
83552;SDS011;73510;50.866;5.420;2024-02-14T11:27:59;1.10;;;0.75;;
83552;SDS011;73510;50.866;5.420;2024-02-14T11:30:30;1.02;;;0.45;;
83552;SDS011;73510;50.866;5.420;2024-02-14T11:35:45;2.03;;;0.80;;
83552;SDS011;73510;50.866;5.420;2024-02-14T11:38:13;0.93;;;0.50;;
83552;SDS011;73510;50.866;5.420;2024-02-14T11:40:39;0.88;;;0.50;;
83552;SDS011;73510;50.866;5.420;2024-02-14T11:43:15;1.40;;;0.82;;
83552;SDS011;73510;50.866;5.420;2024-02-14T11:45:43;1.27;;;0.60;;
83552;SDS011;73510;50.866;5.420;2024-02-14T11:48:13;1.02;;;0.73;;
83552;SDS011;73510;50.866;5.420;2024-02-14T11:50:39;1.88;;;0.60;;
83552;SDS011;73510;50.866;5.420;2024-02-14T11:53:06;0.63;;;0.32;;
83552;SDS011;73510;50.866;5.420;2024-02-14T11:55:35;0.85;;;0.45;;
83552;SDS011;73510;50.866;5.420;2024-02-14T11:58:03;3.05;;;0.60;;
83552;SDS011;73510;50.866;5.420;2024-02-14T12:00:41;0.52;;;0.30;;
83552;SDS011;73510;50.866;5.420;2024-02-14T12:03:18;0.77;;;0.45;;
83552;SDS011;73510;50.866;5.420;2024-02-14T12:05:46;0.40;;;0.30;;
83552;SDS011;73510;50.866;5.420;2024-02-14T12:08:13;0.43;;;0.35;;
83552;SDS011;73510;50.866;5.420;2024-02-14T12:10:42;0.65;;;0.40;;
83552;SDS011;73510;50.866;5.420;2024-02-14T12:13:08;1.42;;;0.22;;
83552;SDS011;73510;50.866;5.420;2024-02-14T12:15:40;0.88;;;0.30;;
83552;SDS011;73510;50.866;5.420;2024-02-14T12:18:07;1.58;;;0.30;;
83552;SDS011;73510;50.866;5.420;2024-02-14T12:20:37;0.40;;;0.15;;
83552;SDS011;73510;50.866;5.420;2024-02-14T12:23:03;0.57;;;0.30;;
83552;SDS011;73510;50.866;5.420;2024-02-14T12:25:30;0.50;;;0.40;;
83552;SDS011;73510;50.866;5.420;2024-02-14T12:27:57;1.05;;;0.20;;
83552;SDS011;73510;50.866;5.420;2024-02-14T12:30:23;0.75;;;0.13;;
83552;SDS011;73510;50.866;5.420;2024-02-14T12:36:02;0.38;;;0.22;;
83552;SDS011;73510;50.866;5.420;2024-02-14T12:38:29;0.32;;;0.13;;
83552;SDS011;73510;50.866;5.420;2024-02-14T12:40:55;0.60;;;0.30;;
83552;SDS011;73510;50.866;5.420;2024-02-14T12:43:20;0.38;;;0.20;;
83552;SDS011;73510;50.866;5.420;2024-02-14T12:45:46;1.48;;;0.30;;
83552;SDS011;73510;50.866;5.420;2024-02-14T12:48:12;0.60;;;0.50;;
83552;SDS011;73510;50.866;5.420;2024-02-14T12:50:46;0.30;;;0.10;;
83552;SDS011;73510;50.866;5.420;2024-02-14T12:53:12;1.13;;;0.20;;
83552;SDS011;73510;50.866;5.420;2024-02-14T12:55:38;0.30;;;0.20;;
83552;SDS011;73510;50.866;5.420;2024-02-14T12:58:04;0.30;;;0.20;;
83552;SDS011;73510;50.866;5.420;2024-02-14T13:00:30;0.80;;;0.20;;
83552;SDS011;73510;50.866;5.420;2024-02-14T13:02:57;0.30;;;0.25;;
83552;SDS011;73510;50.866;5.420;2024-02-14T13:05:23;1.85;;;0.10;;
83552;SDS011;73510;50.866;5.420;2024-02-14T13:07:50;0.50;;;0.28;;
83552;SDS011;73510;50.866;5.420;2024-02-14T13:10:16;0.98;;;0.30;;
83552;SDS011;73510;50.866;5.420;2024-02-14T13:12:43;0.65;;;0.28;;
83552;SDS011;73510;50.866;5.420;2024-02-14T13:15:10;1.33;;;0.20;;
83552;SDS011;73510;50.866;5.420;2024-02-14T13:17:36;0.40;;;0.20;;
83552;SDS011;73510;50.866;5.420;2024-02-14T13:20:01;0.93;;;0.20;;
83552;SDS011;73510;50.866;5.420;2024-02-14T13:22:27;0.77;;;0.40;;
83552;SDS011;73510;50.866;5.420;2024-02-14T13:24:53;0.77;;;0.32;;
83552;SDS011;73510;50.866;5.420;2024-02-14T13:27:19;0.70;;;0.32;;
83552;SDS011;73510;50.866;5.420;2024-02-14T13:29:48;0.57;;;0.40;;
83552;SDS011;73510;50.866;5.420;2024-02-14T13:32:14;1.02;;;0.40;;
83552;SDS011;73510;50.866;5.420;2024-02-14T13:34:40;1.38;;;0.30;;
83552;SDS011;73510;50.866;5.420;2024-02-14T13:37:06;0.68;;;0.30;;
83552;SDS011;73510;50.866;5.420;2024-02-14T13:39:32;0.68;;;0.32;;
83552;SDS011;73510;50.866;5.420;2024-02-14T13:41:58;0.52;;;0.43;;
83552;SDS011;73510;50.866;5.420;2024-02-14T13:44:25;1.67;;;0.40;;
83552;SDS011;73510;50.866;5.420;2024-02-14T13:46:50;0.85;;;0.50;;
83552;SDS011;73510;50.866;5.420;2024-02-14T13:49:17;1.55;;;0.85;;
83552;SDS011;73510;50.866;5.420;2024-02-14T13:51:47;2.42;;;1.00;;
83552;SDS011;73510;50.866;5.420;2024-02-14T13:54:13;1.10;;;0.70;;
83552;SDS011;73510;50.866;5.420;2024-02-14T13:56:39;0.63;;;0.52;;
83552;SDS011;73510;50.866;5.420;2024-02-14T13:59:06;0.57;;;0.57;;
83552;SDS011;73510;50.866;5.420;2024-02-14T14:01:32;0.50;;;0.40;;
83552;SDS011;73510;50.866;5.420;2024-02-14T14:03:57;1.10;;;0.47;;
83552;SDS011;73510;50.866;5.420;2024-02-14T14:06:23;1.08;;;0.60;;
83552;SDS011;73510;50.866;5.420;2024-02-14T14:08:51;1.38;;;0.50;;
83552;SDS011;73510;50.866;5.420;2024-02-14T14:11:17;0.90;;;0.70;;
83552;SDS011;73510;50.866;5.420;2024-02-14T14:13:43;1.75;;;0.75;;
83552;SDS011;73510;50.866;5.420;2024-02-14T14:16:08;0.93;;;0.45;;
83552;SDS011;73510;50.866;5.420;2024-02-14T14:18:36;2.65;;;0.77;;
83552;SDS011;73510;50.866;5.420;2024-02-14T14:21:01;1.67;;;0.50;;
83552;SDS011;73510;50.866;5.420;2024-02-14T14:23:28;1.95;;;0.85;;
83552;SDS011;73510;50.866;5.420;2024-02-14T14:25:54;0.65;;;0.60;;
83552;SDS011;73510;50.866;5.420;2024-02-14T14:28:19;0.70;;;0.70;;
83552;SDS011;73510;50.866;5.420;2024-02-14T14:30:50;0.73;;;0.73;;
83552;SDS011;73510;50.866;5.420;2024-02-14T14:33:16;0.88;;;0.63;;
83552;SDS011;73510;50.866;5.420;2024-02-14T14:35:41;1.20;;;0.80;;
83552;SDS011;73510;50.866;5.420;2024-02-14T14:38:08;0.82;;;0.73;;
83552;SDS011;73510;50.866;5.420;2024-02-14T14:40:33;1.38;;;0.60;;
83552;SDS011;73510;50.866;5.420;2024-02-14T14:42:59;2.67;;;0.82;;
83552;SDS011;73510;50.866;5.420;2024-02-14T14:45:25;1.55;;;1.13;;
83552;SDS011;73510;50.866;5.420;2024-02-14T14:47:53;2.63;;;1.13;;
83552;SDS011;73510;50.866;5.420;2024-02-14T14:50:18;1.23;;;0.60;;
83552;SDS011;73510;50.866;5.420;2024-02-14T14:52:44;3.55;;;2.15;;